• Join FlightAware (Why Join?)
  • Login
  • US Flag 
06:32AM EST


 

Airport Tracker/Info


-or-


 

Live Flight TrackerFlight Track Log ✈ N287KB ✈ 25-Aug-2013 ✈ PANC - KSCK

Flight Track Log - Related Links

Times and Time Zones

All times are in EDT time to prevent confusion due to time zone crossing. See the N287KB flight status page for this flight to view local times or setup timezone preferences in your user account.

Time Position Orientation Groundspeed Altitude Reporting Facility
EDT Latitude Longitude Course Direction KTS MPH feet Rate Location/Type
05:30AM 61.1000 -150.1667 143° Southeast 280 322 9,800  Level Anchorage Center
05:31AM 61.0333 -150.1000 154° Southeast 320 368 11,900 1,500 Climbing Anchorage Center
05:32AM 60.9500 -149.9833 146° Southeast 360 414 12,900 1,500 Climbing Anchorage Center
05:33AM 60.7163 -148.8637 133° Southeast  Level Estimated
05:33AM 60.8500 -149.8500 147° Southeast 410 472 15,000  Level Anchorage Center
05:34AM 60.6169 -148.7290 146° Southeast  Level FlightAware Approximate
05:34AM 60.7667 -149.7000 139° Southeast 430 495 17,400  Level Anchorage Center
05:35AM 60.5396 -148.5438 134° Southeast  Level Estimated
05:35AM 60.6667 -149.5500 144° Southeast 440 506 19,800  Level Anchorage Center
05:36AM 60.4438 -148.3991 143° Southeast  Level FlightAware Approximate
05:36AM 60.5667 -149.4000 144° Southeast 450 518 21,400  Level Anchorage Center
05:37AM 60.4667 -149.2333 141° Southeast 460 529 22,900 1,380 Climbing Anchorage Center
05:38AM 60.3667 -149.0667 140° Southeast 470 541 24,200 1,320 Climbing Anchorage Center
05:39AM 60.2500 -148.9000 145° Southeast 490 564 25,600 1,260 Climbing Anchorage Center
05:40AM 60.1833 -148.6333 117° Southeast 500 575 26,800 1,260 Climbing Anchorage Center
05:41AM 60.1167 -148.4333 124° Southeast 480 552 28,200 1,260 Climbing Anchorage Center
05:42AM 60.0333 -148.2000 125° Southeast 480 552 29,400 1,200 Climbing Anchorage Center
05:43AM 59.9667 -147.9833 122° Southeast 480 552 30,700 1,080 Climbing Anchorage Center
05:44AM 59.8833 -147.7500 125° Southeast 490 564 31,600 900 Climbing Anchorage Center
05:45AM 59.8167 -147.5167 120° Southeast 480 552 32,600 660 Climbing Anchorage Center
05:46AM 59.7333 -147.3000 127° Southeast 480 552 33,000 180 Climbing Anchorage Center
05:47AM 59.6667 -147.0833 121° Southeast 480 552 33,000  Level Anchorage Center
05:48AM 59.5833 -146.8667 127° Southeast 480 552 33,000  Level Anchorage Center
05:49AM 59.5167 -146.6333 119° Southeast 480 552 33,000  Level Anchorage Center
05:50AM 59.4333 -146.4000 125° Southeast 480 552 33,000  Level Anchorage Center
05:51AM 59.3500 -146.1833 127° Southeast 490 564 33,000  Level Anchorage Center
05:52AM 59.2833 -146.0167 128° Southeast 480 552 33,000  Level Anchorage Center
05:53AM 59.1833 -145.7833 130° Southeast 480 552 33,000  Level Anchorage Center
05:54AM 59.0833 -145.5833 134° Southeast 470 541 33,000  Level Anchorage Center
05:55AM 59.0000 -145.3833 129° Southeast 470 541 33,000  Level Anchorage Center
05:56AM 58.9167 -145.1833 129° Southeast 470 541 33,000  Level Anchorage Center
05:57AM 58.8333 -144.9833 129° Southeast 470 541 33,000  Level Anchorage Center
05:58AM 58.7500 -144.8000 131° Southeast 470 541 33,000  Level Anchorage Center
05:59AM 58.6667 -144.6000 129° Southeast 460 529 33,000  Level Anchorage Center
06:01AM 58.5830 -144.4145 131° Southeast  Level FlightAware Approximate
06:01AM 58.5000 -144.2333 131° Southeast 460 529 33,000  Level Anchorage Center
06:02AM 58.4167 -144.0500 131° Southeast 460 529 33,000  Level Anchorage Center
06:03AM 58.3333 -143.8500 128° Southeast 460 529 33,000  Level Anchorage Center
06:04AM 58.2500 -143.6833 133° Southeast 460 529 33,000  Level Anchorage Center
06:05AM 58.1500 -143.5000 136° Southeast 460 529 33,000  Level Anchorage Center
06:06AM 58.0667 -143.3167 131° Southeast 450 518 33,000  Level Anchorage Center
06:07AM 57.9833 -143.1333 131° Southeast 450 518 33,000  Level Anchorage Center
06:08AM 57.9000 -142.9667 133° Southeast 450 518 33,000  Level Anchorage Center
06:09AM 57.8167 -142.7833 130° Southeast 450 518 33,000  Level Anchorage Center
06:10AM 57.7333 -142.6167 133° Southeast 440 506 33,000  Level Anchorage Center
06:11AM 57.6500 -142.4500 133° Southeast 450 518 33,000  Level Anchorage Center
06:12AM 57.5667 -142.2833 133° Southeast 440 506 33,000  Level Anchorage Center
06:13AM 57.4833 -142.1167 133° Southeast 430 495 33,000  Level Anchorage Center
06:14AM 57.4000 -141.9500 133° Southeast 430 495 33,000  Level Anchorage Center
06:15AM 57.3167 -141.7833 133° Southeast 430 495 33,000  Level Anchorage Center
06:16AM 57.2500 -141.6333 129° Southeast 420 483 33,000  Level Anchorage Center
06:17AM 57.1667 -141.4667 133° Southeast 430 495 33,000  Level Anchorage Center
06:18AM 57.0833 -141.3167 136° Southeast 420 483 33,000  Level Anchorage Center
06:19AM 57.0000 -141.1500 133° Southeast 420 483 33,000  Level Anchorage Center
06:20AM 56.9167 -141.0000 135° Southeast 430 495 33,000  Level Anchorage Center
06:21AM 56.8333 -140.8333 132° Southeast 420 483 33,000  Level Anchorage Center
06:22AM 56.7500 -140.6833 135° Southeast 420 483 33,000  Level Anchorage Center
06:23AM 56.6667 -140.5333 135° Southeast 420 483 33,000  Level Anchorage Center
06:24AM 56.6000 -140.3833 129° Southeast 410 472 33,000  Level Anchorage Center
06:25AM 56.5167 -140.2333 135° Southeast 410 472 33,000  Level Anchorage Center
06:26AM 56.4333 -140.0833 135° Southeast 420 483 33,000  Level Anchorage Center
06:27AM 56.3500 -139.9333 135° Southeast 410 472 33,000  Level Anchorage Center
06:28AM 56.2667 -139.7833 135° Southeast 420 483 33,000  Level Anchorage Center
06:29AM 56.1833 -139.6333 135° Southeast 420 483 33,000  Level Anchorage Center
06:30AM 56.1000 -139.5000 138° Southeast 410 472 33,000  Level Anchorage Center
06:31AM 56.0167 -139.3500 135° Southeast 420 483 33,000  Level Anchorage Center
06:32AM 55.9500 -139.2000 128° Southeast 400 460 33,000  Level Anchorage Center
06:34AM 55.8667 -139.0667 138° Southeast 410 472 33,000  Level Anchorage Center
06:35AM 55.7833 -138.9167 135° Southeast 410 472 33,000  Level Anchorage Center
06:36AM 55.7000 -138.7833 138° Southeast 400 460 33,000  Level Anchorage Center
06:37AM 55.6167 -138.6333 134° Southeast 410 472 33,000  Level Anchorage Center
06:38AM 55.5333 -138.5000 138° Southeast 400 460 33,000  Level Anchorage Center
06:39AM 55.4500 -138.3667 138° Southeast 400 460 33,000  Level Anchorage Center
06:40AM 55.3667 -138.2167 134° Southeast 410 472 33,000  Level Anchorage Center
06:41AM 55.2833 -138.0833 138° Southeast 410 472 33,000  Level Anchorage Center
06:42AM 55.2167 -137.9500 131° Southeast 400 460 33,000  Level Anchorage Center
06:43AM 55.1333 -137.8167 138° Southeast 400 460 33,000  Level Anchorage Center
06:44AM 55.0500 -137.6667 134° Southeast 410 472 33,000  Level Anchorage Center
06:45AM 54.9667 -137.5333 137° Southeast 400 460 33,000  Level Anchorage Center
06:46AM 54.8833 -137.4000 137° Southeast 410 472 33,000  Level Anchorage Center
06:47AM 54.8000 -137.2667 137° Southeast 410 472 33,000  Level Anchorage Center
06:48AM 54.7167 -137.1333 137° Southeast 400 460 33,000  Level Anchorage Center
06:49AM 54.6333 -137.0000 137° Southeast 410 472 33,000  Level Anchorage Center
06:50AM 54.5500 -136.8667 137° Southeast 410 472 33,000  Level Anchorage Center
06:51AM 54.4667 -136.7333 137° Southeast 410 472 33,000  Level Anchorage Center
06:52AM 54.3833 -136.6000 137° Southeast 410 472 33,000  Level Anchorage Center
06:53AM 54.3000 -136.4667 137° Southeast 410 472 33,000  Level Anchorage Center
06:54AM 54.2167 -136.3333 137° Southeast 410 472 33,000  Level Anchorage Center
06:55AM 54.1333 -136.2000 137° Southeast 410 472 33,000  Level Anchorage Center
06:56AM 54.0500 -136.0667 137° Southeast 420 483 33,000  Level Anchorage Center
06:58AM 53.8000 -135.8500 153° Southeast 420 483 33,000  Level Vancouver Center
06:59AM 53.7167 -135.7333 140° Southeast 420 483 33,000  Level Vancouver Center
07:00AM 53.6167 -135.6167 145° Southeast 420 483 33,000  Level Vancouver Center
07:01AM 53.5333 -135.5167 144° Southeast 420 483 33,000  Level Vancouver Center
07:02AM 53.4333 -135.4000 145° Southeast 420 483 33,000  Level Vancouver Center
07:03AM 53.3333 -135.2833 145° Southeast 420 483 33,000  Level Vancouver Center
07:04AM 53.2500 -135.1833 144° Southeast 420 483 33,000  Level Vancouver Center
07:05AM 53.1333 -135.0667 149° Southeast 420 483 33,000  Level Vancouver Center
07:06AM 53.0500 -134.9667 144° Southeast 420 483 33,000  Level Vancouver Center
07:07AM 52.9500 -134.8500 145° Southeast 420 483 33,000  Level Vancouver Center
07:08AM 52.8667 -134.7500 144° Southeast 420 483 33,000  Level Vancouver Center
07:09AM 52.7667 -134.6167 141° Southeast 430 495 33,000  Level Vancouver Center
07:10AM 52.6667 -134.5000 145° Southeast 430 495 33,000  Level Vancouver Center
07:11AM 52.5833 -134.4000 144° Southeast 430 495 33,000  Level Vancouver Center
07:12AM 52.4667 -134.2833 149° Southeast 430 495 33,100  Climbing Vancouver Center
07:13AM 52.3833 -134.1833 144° Southeast 430 495 33,000 -60 Descending Vancouver Center
07:14AM 52.2667 -134.0833 152° Southeast 430 495 33,000  Level Vancouver Center
07:15AM 52.1833 -133.9833 144° Southeast 430 495 33,000  Level Vancouver Center
07:16AM 52.0667 -133.8667 148° Southeast 430 495 33,000  Level Vancouver Center
07:17AM 51.9833 -133.7667 144° Southeast 430 495 33,000  Level Vancouver Center
07:18AM 51.8667 -133.6333 145° Southeast 430 495 33,000  Level Vancouver Center
07:19AM 51.7833 -133.5333 143° Southeast 440 506 33,100  Climbing Vancouver Center
07:20AM 51.6667 -133.4333 152° Southeast 430 495 33,000 -60 Descending Vancouver Center
07:21AM 51.5667 -133.3167 144° Southeast 440 506 33,000  Level Vancouver Center
07:22AM 51.4667 -133.2167 148° Southeast 440 506 33,000  Level Vancouver Center
07:23AM 51.3667 -133.1000 144° Southeast 440 506 33,000  Level Vancouver Center
07:24AM 51.2667 -133.0000 148° Southeast 440 506 33,000  Level Vancouver Center
07:25AM 51.1500 -132.9000 152° Southeast 440 506 33,000  Level Vancouver Center
07:26AM 51.0500 -132.7833 144° Southeast 440 506 33,000  Level Vancouver Center
07:27AM 50.9500 -132.7000 152° Southeast 440 506 33,000  Level Vancouver Center
07:28AM 50.8500 -132.5833 144° Southeast 440 506 33,100  Climbing Vancouver Center
07:29AM 50.7333 -132.4667 148° Southeast 450 518 33,000 -60 Descending Vancouver Center
07:30AM 50.6500 -132.3667 143° Southeast 450 518 33,000  Level Vancouver Center
07:31AM 50.5333 -132.2667 151° Southeast 450 518 33,100  Climbing Vancouver Center
07:32AM 50.4167 -132.1667 151° Southeast 440 506 33,100 -60 Level Vancouver Center
07:33AM 50.3333 -132.0500 138° Southeast 440 506 33,000 -60 Descending Vancouver Center
07:34AM 50.2167 -131.9500 151° Southeast 440 506 33,000  Level Vancouver Center
07:35AM 50.1333 -131.8500 142° Southeast 440 506 33,000  Level Vancouver Center
07:36AM 50.0167 -131.7667 155° Southeast 440 506 33,000 -60 Level Vancouver Center
07:37AM 49.9000 -131.6667 151° Southeast 440 506 32,900 -60 Descending Vancouver Center
07:38AM 49.8000 -131.5667 147° Southeast 440 506 32,900  Level Vancouver Center
07:39AM 49.7000 -131.4667 147° Southeast 440 506 33,000  Climbing Vancouver Center
07:40AM 49.5833 -131.3833 155° Southeast 450 518 33,000  Level Vancouver Center
07:41AM 49.4833 -131.2833 147° Southeast 450 518 33,100  Climbing Vancouver Center
07:42AM 49.3667 -131.1833 151° Southeast 440 506 33,000 -60 Descending Vancouver Center
07:43AM 49.2667 -131.1000 151° Southeast 450 518 33,000  Level Vancouver Center
07:44AM 49.1667 -131.0333 156° South 440 506 33,000  Level Vancouver Center
07:45AM 49.0500 -130.9333 151° Southeast 450 518 33,000  Level Vancouver Center
07:46AM 48.9333 -130.8500 155° Southeast 450 518 33,100  Climbing Vancouver Center
07:47AM 48.8333 -130.7333 142° Southeast 440 506 33,000 -120 Descending Vancouver Center
07:48AM 48.7333 -130.6667 156° South 440 506 32,900  Descending Vancouver Center
07:49AM 48.6167 -130.5667 150° Southeast 440 506 33,000  Climbing Vancouver Center
07:50AM 48.5167 -130.4833 151° Southeast 440 506 33,000  Level Vancouver Center
07:51AM 48.4000 -130.3833 150° Southeast 440 506 33,000  Level Vancouver Center
07:52AM 48.3000 -130.3000 151° Southeast 440 506 33,000  Level Vancouver Center
07:53AM 48.1833 -130.2167 155° Southeast 440 506 33,100  Climbing Vancouver Center
07:54AM 48.0833 -130.1167 146° Southeast 440 506 33,100 -60 Level Vancouver Center
07:55AM 47.9833 -130.0333 151° Southeast 440 506 33,000 -60 Descending Vancouver Center
07:56AM 47.8667 -129.9500 154° Southeast 440 506 33,000  Level Vancouver Center
07:57AM 47.7500 -129.8667 154° Southeast 440 506 33,000  Level Vancouver Center
07:58AM 47.6500 -129.7667 146° Southeast 440 506 33,000  Level Vancouver Center
07:59AM 47.5500 -129.6833 151° Southeast 440 506 33,000  Level Vancouver Center
08:00AM 47.4333 -129.6000 154° Southeast 440 506 33,000  Level Vancouver Center
08:01AM 47.3500 -129.5167 146° Southeast 440 506 33,000  Level Vancouver Center
08:02AM 47.2167 -129.4333 157° South 450 518 33,000  Level Vancouver Center
08:03AM 47.1167 -129.3333 146° Southeast 440 506 33,000  Level Vancouver Center
08:04AM 47.0000 -129.2500 154° Southeast 440 506 33,000  Level Vancouver Center
08:05AM 46.9000 -129.1667 150° Southeast 420 483 33,000  Level Vancouver Center
08:06AM 46.8000 -129.0833 150° Southeast 440 506 33,000  Level Vancouver Center
08:07AM 46.7167 -129.0333 158° South 440 506 33,000  Level Vancouver Center
08:08AM 46.6167 -128.9667 155° Southeast 450 518 33,000  Level Vancouver Center
08:09AM 46.4833 -128.8667 153° Southeast 450 518 33,000  Level Vancouver Center
08:10AM 46.4000 -128.8000 151° Southeast 450 518 33,000 -60 Level Vancouver Center
08:11AM 46.2667 -128.7000 153° Southeast 450 518 32,900 -60 Descending Vancouver Center
08:12AM 46.1667 -128.6167 150° Southeast 450 518 32,900  Level Vancouver Center
08:13AM 46.0500 -128.5333 154° Southeast 450 518 32,900  Level Vancouver Center
08:14AM 45.9333 -128.4500 154° Southeast 450 518 33,000  Climbing Vancouver Center
08:15AM 45.8333 -128.3667 150° Southeast 450 518 33,000  Level Vancouver Center
08:16AM 45.7167 -128.2833 153° Southeast 450 518 33,000  Level Vancouver Center
08:17AM 45.6000 -128.2000 153° Southeast 460 529 33,000  Level Vancouver Center
08:18AM 45.4833 -128.1333 158° South 460 529 33,000  Level Vancouver Center
08:19AM 45.3667 -128.0500 153° Southeast 450 518 33,000  Level Vancouver Center
08:20AM 45.2667 -127.9667 150° Southeast 460 529 33,000  Level Vancouver Center
08:21AM 45.1500 -127.8667 149° Southeast 460 529 33,000  Level Vancouver Center
08:22AM 45.0333 -127.7833 153° Southeast 460 529 33,000 -60 Level Vancouver Center
08:23AM 44.9167 -127.7000 153° Southeast 460 529 32,900 -60 Descending Vancouver Center
08:24AM 44.8000 -127.6333 158° South 460 529 32,900  Level Vancouver Center
08:25AM 44.7167 -127.5667 150° Southeast 460 529 33,000  Climbing Vancouver Center
08:27AM 44.5246 -127.4274 153° Southeast  Level FlightAware Approximate
08:34AM 43.7966 -126.9086 153° Southeast  Level FlightAware Approximate
08:35AM 43.6923 -126.8355 153° Southeast  Level FlightAware Approximate
08:36AM 43.5881 -126.7627 153° Southeast  Level FlightAware Approximate
08:36AM 43.4214 -126.6447 153° Southeast 420 483 32,900  Level Seattle Center
08:37AM 43.4838 -126.6901 153° Southeast  Level FlightAware Approximate
08:37AM 43.3231 -126.5522 146° Southeast 428 493 33,000  Level Seattle Center
08:38AM 43.3795 -126.6192 153° Southeast  Level FlightAware Approximate
08:38AM 43.2317 -126.4475 140° Southeast 432 497 33,100  Level Seattle Center
08:39AM 43.2751 -126.5471 153° Southeast  Level FlightAware Approximate
08:39AM 43.1408 -126.3467 141° Southeast 429 494 32,900  Level Seattle Center
08:40AM 43.1708 -126.4755 153° Southeast  Level FlightAware Approximate
08:40AM 43.0489 -126.2447 141° Southeast 428 493 33,000  Level Seattle Center
08:41AM 43.0666 -126.4042 153° Southeast  Level FlightAware Approximate
08:41AM 42.9583 -126.1436 141° Southeast 426 490 33,000  Level Seattle Center
08:42AM 42.9622 -126.3330 153° Southeast  Level FlightAware Approximate
08:42AM 42.8678 -126.0425 141° Southeast 424 488 32,900  Level Seattle Center
08:43AM 42.7867 -125.9489 140° Southeast 424 488 32,900  Level Seattle Center
08:44AM 42.6936 -125.8486 142° Southeast 425 489 32,900  Level Seattle Center
08:45AM 42.6011 -125.7450 140° Southeast 430 495 33,000  Climbing Seattle Center
08:46AM 42.5067 -125.6442 142° Southeast 431 496 33,000  Level Seattle Center
08:47AM 42.4150 -125.5442 141° Southeast 427 491 33,000 -60 Level Seattle Center
08:48AM 42.3233 -125.4433 141° Southeast 426 490 32,900 -60 Descending Seattle Center
08:49AM 42.2311 -125.3444 142° Southeast 423 487 32,900  Level Seattle Center
08:50AM 42.1375 -125.2439 141° Southeast 428 493 33,000  Climbing Seattle Center
08:51AM 42.0447 -125.1422 141° Southeast 431 496 33,000  Level Seattle Center
08:52AM 41.9519 -125.0453 142° Southeast 426 490 33,000  Level Seattle Center
08:53AM 41.8594 -124.9469 142° Southeast 426 490 33,000 -60 Level Seattle Center
08:54AM 41.7681 -124.8503 142° Southeast 421 484 32,900 -60 Descending Seattle Center
08:56AM 41.6583 -124.7361 142° Southeast 417 480 32,900  Level Oakland Center
08:56AM 41.5850 -124.6572 141° Southeast 419 482 32,900  Level Seattle Center
08:57AM 41.4747 -124.5397 141° Southeast 422 486 33,000  Climbing Seattle Center
08:58AM 41.3811 -124.4444 143° Southeast 423 487 33,000  Level Seattle Center
08:59AM 41.2889 -124.3497 142° Southeast 420 483 33,000  Level Seattle Center
09:00AM 41.1967 -124.2533 142° Southeast 421 484 33,000 -60 Level Seattle Center
09:01AM 41.1028 -124.1572 142° Southeast 425 489 32,900  Descending Seattle Center
09:02AM 41.0111 -124.0617 142° Southeast 421 484 33,000  Climbing Seattle Center
09:03AM 40.9175 -123.9675 143° Southeast 421 484 33,000  Level Seattle Center
09:04AM 40.8253 -123.8719 142° Southeast 420 483 33,000 -60 Level Seattle Center
09:05AM 40.7322 -123.7775 142° Southeast 420 483 32,900  Descending Seattle Center
09:06AM 40.6381 -123.6842 143° Southeast 420 483 33,000  Climbing Seattle Center
09:07AM 40.5442 -123.5892 142° Southeast 423 487 33,000  Level Seattle Center
09:08AM 40.4692 -123.5144 143° Southeast 422 486 33,000  Level Seattle Center
09:09AM 40.3772 -123.4211 142° Southeast 419 482 33,000 -60 Level Seattle Center
09:10AM 40.2858 -123.3272 142° Southeast 416 479 32,900 -60 Descending Seattle Center
09:11AM 40.1919 -123.2358 143° Southeast 417 480 32,900  Level Seattle Center
09:12AM 40.0811 -123.1250 143° Southeast 418 481 32,900  Level Seattle Center
09:14AM 39.9886 -123.0336 143° Southeast 417 480 32,900  Level Seattle Center
09:15AM 39.8953 -122.9422 143° Southeast 419 482 32,900  Level Seattle Center
09:16AM 39.8014 -122.8508 143° Southeast 420 483 33,000  Climbing Seattle Center
09:17AM 39.7067 -122.7594 143° Southeast 422 486 33,000  Level Oakland Center
09:18AM 39.6144 -122.6692 143° Southeast 418 481 33,000  Level Oakland Center
09:19AM 39.5222 -122.5789 143° Southeast 418 481 33,000 -60 Level Oakland Center
09:20AM 39.4272 -122.4875 143° Southeast 415 478 32,900 -900 Descending Oakland Center
09:21AM 39.3339 -122.3967 143° Southeast 419 482 31,300 -1,620 Descending Oakland Center
09:22AM 39.2419 -122.3097 144° Southeast 414 476 29,700 -1,680 Descending Oakland Center
09:23AM 39.1536 -122.2233 143° Southeast 402 463 28,000 -1,740 Descending Oakland Center
09:24AM 39.0661 -122.1397 143° Southeast 393 452 26,300 -1,740 Descending Oakland Center
09:25AM 38.9758 -122.0531 143° Southeast 404 465 24,500 -1,920 Descending Oakland Center
09:26AM 38.8881 -121.9706 144° Southeast 395 455 22,500 -1,980 Descending Oakland Center
09:27AM 38.8006 -121.8889 144° Southeast 390 449 20,600 -2,160 Descending Oakland Center
09:28AM 38.6939 -121.8125 151° Southeast 369 425 18,200 -2,280 Descending Oakland Center
09:29AM 38.6117 -121.7497 149° Southeast 349 402 16,100 -2,040 Descending Oakland Center
09:30AM 38.5289 -121.6881 150° Southeast 347 399 14,100 -2,040 Descending Oakland Center
09:31AM 38.4481 -121.6278 150° Southeast 341 392 12,100 -1,380 Descending Oakland Center
09:31AM 38.4000 -121.6000 156° South 338 389 12,000 -780 Descending Northern Cal TRACON
09:32AM 38.3333 -121.5333 142° Southeast 301 346 10,900 -1,320 Descending Northern Cal TRACON
09:33AM 38.2667 -121.4833 150° Southeast 284 327 9,600 -1,440 Descending Northern Cal TRACON
09:34AM 38.1833 -121.4333 155° Southeast 271 312 8,100 -900 Descending Northern Cal TRACON
09:35AM 38.1333 -121.3833 142° Southeast 272 313 7,900 -900 Descending Northern Cal TRACON
09:36AM 38.0833 -121.3167 134° Southeast 274 315 6,400 -1,500 Descending Northern Cal TRACON
09:37AM 38.0333 -121.2333 127° Southeast 266 306 4,700 -1,560 Descending Northern Cal TRACON
09:40AM 37.8942 -121.2383 162° South  Level Estimated
09:47AM 37.8942 -121.2383 162° South  Level Estimated